sensor_id;sensor_type;location;lat;lon;timestamp;temperature;humidity
27376;DHT22;14844;51.302;6.354;2023-07-20T00:01:16;15.60;99.90
27376;DHT22;14844;51.302;6.354;2023-07-20T00:03:42;15.70;99.90
27376;DHT22;14844;51.302;6.354;2023-07-20T00:06:07;15.70;99.90
27376;DHT22;14844;51.302;6.354;2023-07-20T00:08:33;15.80;99.90
27376;DHT22;14844;51.302;6.354;2023-07-20T00:10:58;15.80;99.90
27376;DHT22;14844;51.302;6.354;2023-07-20T00:13:24;15.90;99.90
27376;DHT22;14844;51.302;6.354;2023-07-20T00:15:51;15.90;99.90
27376;DHT22;14844;51.302;6.354;2023-07-20T00:18:16;15.90;99.90
27376;DHT22;14844;51.302;6.354;2023-07-20T00:20:42;15.90;99.90
27376;DHT22;14844;51.302;6.354;2023-07-20T00:23:07;15.90;99.90
27376;DHT22;14844;51.302;6.354;2023-07-20T00:25:33;15.80;99.90
27376;DHT22;14844;51.302;6.354;2023-07-20T00:27:58;15.90;99.90
27376;DHT22;14844;51.302;6.354;2023-07-20T00:30:24;15.90;99.90
27376;DHT22;14844;51.302;6.354;2023-07-20T00:32:49;15.90;99.90
27376;DHT22;14844;51.302;6.354;2023-07-20T00:35:15;15.80;99.90
27376;DHT22;14844;51.302;6.354;2023-07-20T00:37:40;15.80;99.90
27376;DHT22;14844;51.302;6.354;2023-07-20T00:40:06;15.70;99.90
27376;DHT22;14844;51.302;6.354;2023-07-20T00:42:34;15.80;99.90
27376;DHT22;14844;51.302;6.354;2023-07-20T00:45:00;15.70;99.90
27376;DHT22;14844;51.302;6.354;2023-07-20T00:47:25;15.60;99.90
27376;DHT22;14844;51.302;6.354;2023-07-20T00:49:51;15.50;99.90
27376;DHT22;14844;51.302;6.354;2023-07-20T00:52:17;15.40;99.90
27376;DHT22;14844;51.302;6.354;2023-07-20T00:54:43;15.40;99.90
27376;DHT22;14844;51.302;6.354;2023-07-20T00:57:09;15.40;99.90
27376;DHT22;14844;51.302;6.354;2023-07-20T00:59:34;15.40;99.90
27376;DHT22;14844;51.302;6.354;2023-07-20T01:02:01;15.30;99.90
27376;DHT22;14844;51.302;6.354;2023-07-20T01:04:26;15.40;99.90
27376;DHT22;14844;51.302;6.354;2023-07-20T01:09:32;15.30;99.90
27376;DHT22;14844;51.302;6.354;2023-07-20T01:12:10;15.20;99.90
27376;DHT22;14844;51.302;6.354;2023-07-20T01:14:37;15.20;99.90
27376;DHT22;14844;51.302;6.354;2023-07-20T01:17:03;15.20;99.90
27376;DHT22;14844;51.302;6.354;2023-07-20T01:19:28;15.10;99.90
27376;DHT22;14844;51.302;6.354;2023-07-20T01:21:59;15.10;99.90
27376;DHT22;14844;51.302;6.354;2023-07-20T01:27:49;15.10;99.90
27376;DHT22;14844;51.302;6.354;2023-07-20T01:30:25;15.10;99.90
27376;DHT22;14844;51.302;6.354;2023-07-20T01:32:52;15.00;99.90
27376;DHT22;14844;51.302;6.354;2023-07-20T01:35:19;15.00;99.90
27376;DHT22;14844;51.302;6.354;2023-07-20T01:37:46;15.00;99.90
27376;DHT22;14844;51.302;6.354;2023-07-20T01:40:13;15.00;99.90
27376;DHT22;14844;51.302;6.354;2023-07-20T01:42:42;15.00;99.90
27376;DHT22;14844;51.302;6.354;2023-07-20T01:45:08;14.90;99.90
27376;DHT22;14844;51.302;6.354;2023-07-20T01:47:34;14.90;99.90
27376;DHT22;14844;51.302;6.354;2023-07-20T01:49:59;14.90;99.90
27376;DHT22;14844;51.302;6.354;2023-07-20T01:52:25;14.90;99.90
27376;DHT22;14844;51.302;6.354;2023-07-20T01:54:50;14.90;99.90
27376;DHT22;14844;51.302;6.354;2023-07-20T01:57:16;14.90;99.90
27376;DHT22;14844;51.302;6.354;2023-07-20T01:59:41;14.90;99.90
27376;DHT22;14844;51.302;6.354;2023-07-20T02:02:07;14.80;99.90
27376;DHT22;14844;51.302;6.354;2023-07-20T02:04:32;14.90;99.90
27376;DHT22;14844;51.302;6.354;2023-07-20T02:06:58;14.80;99.90
27376;DHT22;14844;51.302;6.354;2023-07-20T02:09:23;14.90;99.90
27376;DHT22;14844;51.302;6.354;2023-07-20T02:11:48;14.80;99.90
27376;DHT22;14844;51.302;6.354;2023-07-20T02:14:15;14.80;99.90
27376;DHT22;14844;51.302;6.354;2023-07-20T02:16:40;14.80;99.90
27376;DHT22;14844;51.302;6.354;2023-07-20T02:19:06;14.80;99.90
27376;DHT22;14844;51.302;6.354;2023-07-20T02:21:32;14.70;99.90
27376;DHT22;14844;51.302;6.354;2023-07-20T02:23:57;14.70;99.90
27376;DHT22;14844;51.302;6.354;2023-07-20T02:26:23;14.70;99.90
27376;DHT22;14844;51.302;6.354;2023-07-20T02:28:48;14.60;99.90
27376;DHT22;14844;51.302;6.354;2023-07-20T02:31:14;14.70;99.90
27376;DHT22;14844;51.302;6.354;2023-07-20T02:33:39;14.60;99.90
27376;DHT22;14844;51.302;6.354;2023-07-20T02:36:05;14.60;99.90
27376;DHT22;14844;51.302;6.354;2023-07-20T02:38:30;14.50;99.90
27376;DHT22;14844;51.302;6.354;2023-07-20T02:40:55;14.60;99.90
27376;DHT22;14844;51.302;6.354;2023-07-20T02:43:21;14.50;99.90
27376;DHT22;14844;51.302;6.354;2023-07-20T02:45:46;14.50;99.90
27376;DHT22;14844;51.302;6.354;2023-07-20T02:48:12;14.50;99.90
27376;DHT22;14844;51.302;6.354;2023-07-20T02:50:37;14.60;99.90
27376;DHT22;14844;51.302;6.354;2023-07-20T02:53:03;14.70;99.90
27376;DHT22;14844;51.302;6.354;2023-07-20T02:55:28;14.80;99.90
27376;DHT22;14844;51.302;6.354;2023-07-20T02:57:54;14.90;99.90
27376;DHT22;14844;51.302;6.354;2023-07-20T03:00:19;15.00;99.90
27376;DHT22;14844;51.302;6.354;2023-07-20T03:02:45;15.10;99.90
27376;DHT22;14844;51.302;6.354;2023-07-20T03:05:14;15.20;99.90
27376;DHT22;14844;51.302;6.354;2023-07-20T03:07:42;15.30;99.90
27376;DHT22;14844;51.302;6.354;2023-07-20T03:10:08;15.40;99.90
27376;DHT22;14844;51.302;6.354;2023-07-20T03:12:35;15.40;99.90
27376;DHT22;14844;51.302;6.354;2023-07-20T03:15:01;15.50;99.90
27376;DHT22;14844;51.302;6.354;2023-07-20T03:17:26;15.60;99.90
27376;DHT22;14844;51.302;6.354;2023-07-20T03:19:52;15.60;99.90
27376;DHT22;14844;51.302;6.354;2023-07-20T03:22:17;15.70;99.90
27376;DHT22;14844;51.302;6.354;2023-07-20T03:24:43;15.70;99.90
27376;DHT22;14844;51.302;6.354;2023-07-20T03:27:09;15.80;99.90
27376;DHT22;14844;51.302;6.354;2023-07-20T03:29:34;15.80;99.90
27376;DHT22;14844;51.302;6.354;2023-07-20T03:32:00;15.80;99.90
27376;DHT22;14844;51.302;6.354;2023-07-20T03:34:25;15.90;99.90
27376;DHT22;14844;51.302;6.354;2023-07-20T03:36:51;15.90;99.90
27376;DHT22;14844;51.302;6.354;2023-07-20T03:39:16;15.80;99.90
27376;DHT22;14844;51.302;6.354;2023-07-20T03:41:42;15.80;99.90
27376;DHT22;14844;51.302;6.354;2023-07-20T03:44:08;15.80;99.90
27376;DHT22;14844;51.302;6.354;2023-07-20T03:46:33;15.90;99.90
27376;DHT22;14844;51.302;6.354;2023-07-20T03:48:59;15.80;99.90
27376;DHT22;14844;51.302;6.354;2023-07-20T03:51:25;15.80;99.90
27376;DHT22;14844;51.302;6.354;2023-07-20T03:53:51;15.80;99.90
27376;DHT22;14844;51.302;6.354;2023-07-20T03:56:16;15.80;99.90
27376;DHT22;14844;51.302;6.354;2023-07-20T03:58:42;15.80;99.90
27376;DHT22;14844;51.302;6.354;2023-07-20T04:01:07;15.80;99.90
27376;DHT22;14844;51.302;6.354;2023-07-20T04:03:33;15.80;99.90
27376;DHT22;14844;51.302;6.354;2023-07-20T04:05:58;15.80;99.90
27376;DHT22;14844;51.302;6.354;2023-07-20T04:08:24;15.80;99.90
27376;DHT22;14844;51.302;6.354;2023-07-20T04:10:50;15.80;99.90
27376;DHT22;14844;51.302;6.354;2023-07-20T04:13:15;15.80;99.90
27376;DHT22;14844;51.302;6.354;2023-07-20T04:15:41;15.90;99.90
27376;DHT22;14844;51.302;6.354;2023-07-20T04:18:07;15.90;99.90
27376;DHT22;14844;51.302;6.354;2023-07-20T04:20:33;15.90;99.90
27376;DHT22;14844;51.302;6.354;2023-07-20T04:22:59;15.90;99.90
27376;DHT22;14844;51.302;6.354;2023-07-20T04:25:24;15.90;99.90
27376;DHT22;14844;51.302;6.354;2023-07-20T04:27:51;16.00;99.90
27376;DHT22;14844;51.302;6.354;2023-07-20T04:30:17;16.00;99.90
27376;DHT22;14844;51.302;6.354;2023-07-20T04:32:45;16.00;99.90
27376;DHT22;14844;51.302;6.354;2023-07-20T04:35:16;16.00;99.90
27376;DHT22;14844;51.302;6.354;2023-07-20T04:37:42;16.00;99.90
27376;DHT22;14844;51.302;6.354;2023-07-20T04:40:11;16.00;99.90
27376;DHT22;14844;51.302;6.354;2023-07-20T04:42:36;16.10;99.90
27376;DHT22;14844;51.302;6.354;2023-07-20T04:45:02;16.10;99.90
27376;DHT22;14844;51.302;6.354;2023-07-20T04:47:27;16.10;99.90
27376;DHT22;14844;51.302;6.354;2023-07-20T04:49:53;16.10;99.90
27376;DHT22;14844;51.302;6.354;2023-07-20T04:52:18;16.20;99.90
27376;DHT22;14844;51.302;6.354;2023-07-20T04:54:44;16.20;99.90
27376;DHT22;14844;51.302;6.354;2023-07-20T04:57:11;16.20;99.90
27376;DHT22;14844;51.302;6.354;2023-07-20T04:59:39;16.30;99.90
27376;DHT22;14844;51.302;6.354;2023-07-20T05:02:05;16.40;99.90
27376;DHT22;14844;51.302;6.354;2023-07-20T05:04:30;16.40;99.90
27376;DHT22;14844;51.302;6.354;2023-07-20T05:06:56;16.50;99.90
27376;DHT22;14844;51.302;6.354;2023-07-20T05:09:21;16.40;99.90
27376;DHT22;14844;51.302;6.354;2023-07-20T05:11:48;16.40;99.90
27376;DHT22;14844;51.302;6.354;2023-07-20T05:14:13;16.50;99.90
27376;DHT22;14844;51.302;6.354;2023-07-20T05:16:39;16.60;99.90
27376;DHT22;14844;51.302;6.354;2023-07-20T05:19:04;16.70;99.90
27376;DHT22;14844;51.302;6.354;2023-07-20T05:21:30;16.80;99.90
27376;DHT22;14844;51.302;6.354;2023-07-20T05:23:55;16.70;99.90
27376;DHT22;14844;51.302;6.354;2023-07-20T05:26:20;16.70;99.90
27376;DHT22;14844;51.302;6.354;2023-07-20T05:28:46;16.70;99.90
27376;DHT22;14844;51.302;6.354;2023-07-20T05:31:11;16.70;99.90
27376;DHT22;14844;51.302;6.354;2023-07-20T05:33:37;16.70;99.90
27376;DHT22;14844;51.302;6.354;2023-07-20T05:36:02;16.70;99.90
27376;DHT22;14844;51.302;6.354;2023-07-20T05:38:28;16.70;99.90
27376;DHT22;14844;51.302;6.354;2023-07-20T05:40:58;16.70;99.90
27376;DHT22;14844;51.302;6.354;2023-07-20T05:43:24;16.90;99.90
27376;DHT22;14844;51.302;6.354;2023-07-20T05:45:49;17.20;99.90
27376;DHT22;14844;51.302;6.354;2023-07-20T05:48:15;17.30;99.90
27376;DHT22;14844;51.302;6.354;2023-07-20T05:50:42;17.40;99.90
27376;DHT22;14844;51.302;6.354;2023-07-20T05:53:08;17.40;99.90
27376;DHT22;14844;51.302;6.354;2023-07-20T05:55:33;17.30;99.90
27376;DHT22;14844;51.302;6.354;2023-07-20T05:57:59;17.30;99.90
27376;DHT22;14844;51.302;6.354;2023-07-20T06:00:24;17.20;99.90
27376;DHT22;14844;51.302;6.354;2023-07-20T06:02:52;17.10;99.90
27376;DHT22;14844;51.302;6.354;2023-07-20T06:05:18;17.00;99.90
27376;DHT22;14844;51.302;6.354;2023-07-20T06:07:44;17.00;99.90
27376;DHT22;14844;51.302;6.354;2023-07-20T06:10:09;17.10;99.90
27376;DHT22;14844;51.302;6.354;2023-07-20T06:12:35;17.30;99.90
27376;DHT22;14844;51.302;6.354;2023-07-20T06:15:02;17.60;99.90
27376;DHT22;14844;51.302;6.354;2023-07-20T06:17:27;18.00;99.90
27376;DHT22;14844;51.302;6.354;2023-07-20T06:19:53;18.30;99.90
27376;DHT22;14844;51.302;6.354;2023-07-20T06:22:18;18.50;99.90
27376;DHT22;14844;51.302;6.354;2023-07-20T06:24:50;18.60;99.90
27376;DHT22;14844;51.302;6.354;2023-07-20T06:27:15;18.90;99.90
27376;DHT22;14844;51.302;6.354;2023-07-20T06:29:41;19.20;99.90
27376;DHT22;14844;51.302;6.354;2023-07-20T06:32:08;19.50;99.90
27376;DHT22;14844;51.302;6.354;2023-07-20T06:34:35;19.70;99.90
27376;DHT22;14844;51.302;6.354;2023-07-20T06:37:03;19.80;99.90
27376;DHT22;14844;51.302;6.354;2023-07-20T06:39:29;19.90;99.90
27376;DHT22;14844;51.302;6.354;2023-07-20T06:41:55;19.80;99.90
27376;DHT22;14844;51.302;6.354;2023-07-20T06:44:20;19.30;99.90
27376;DHT22;14844;51.302;6.354;2023-07-20T06:46:46;18.90;99.90
27376;DHT22;14844;51.302;6.354;2023-07-20T06:49:19;18.70;99.90
27376;DHT22;14844;51.302;6.354;2023-07-20T06:51:48;18.80;99.90
27376;DHT22;14844;51.302;6.354;2023-07-20T06:54:14;19.20;99.90
27376;DHT22;14844;51.302;6.354;2023-07-20T06:56:39;19.60;99.90
27376;DHT22;14844;51.302;6.354;2023-07-20T06:59:05;19.90;99.90
27376;DHT22;14844;51.302;6.354;2023-07-20T07:01:30;19.80;99.90
27376;DHT22;14844;51.302;6.354;2023-07-20T07:03:56;19.60;99.90
27376;DHT22;14844;51.302;6.354;2023-07-20T07:06:21;19.80;99.90
27376;DHT22;14844;51.302;6.354;2023-07-20T07:08:47;19.90;99.90
27376;DHT22;14844;51.302;6.354;2023-07-20T07:11:13;20.10;99.90
27376;DHT22;14844;51.302;6.354;2023-07-20T07:13:38;20.10;99.90
27376;DHT22;14844;51.302;6.354;2023-07-20T07:16:04;20.00;99.90
27376;DHT22;14844;51.302;6.354;2023-07-20T07:18:30;19.70;99.90
27376;DHT22;14844;51.302;6.354;2023-07-20T07:20:55;19.50;99.90
27376;DHT22;14844;51.302;6.354;2023-07-20T07:23:20;19.20;99.90
27376;DHT22;14844;51.302;6.354;2023-07-20T07:25:46;19.30;99.90
27376;DHT22;14844;51.302;6.354;2023-07-20T07:28:12;19.50;99.90
27376;DHT22;14844;51.302;6.354;2023-07-20T07:30:37;19.60;99.90
27376;DHT22;14844;51.302;6.354;2023-07-20T07:33:03;20.00;99.90
27376;DHT22;14844;51.302;6.354;2023-07-20T07:35:29;20.30;99.90
27376;DHT22;14844;51.302;6.354;2023-07-20T07:37:55;20.50;99.90
27376;DHT22;14844;51.302;6.354;2023-07-20T07:40:20;20.70;99.90
27376;DHT22;14844;51.302;6.354;2023-07-20T07:42:46;20.70;99.90
27376;DHT22;14844;51.302;6.354;2023-07-20T07:45:11;21.00;99.90
27376;DHT22;14844;51.302;6.354;2023-07-20T07:47:37;21.50;99.90
27376;DHT22;14844;51.302;6.354;2023-07-20T07:50:02;21.90;99.90
27376;DHT22;14844;51.302;6.354;2023-07-20T07:52:28;21.60;99.90
27376;DHT22;14844;51.302;6.354;2023-07-20T07:54:53;21.20;99.90
27376;DHT22;14844;51.302;6.354;2023-07-20T07:57:19;21.00;99.90
27376;DHT22;14844;51.302;6.354;2023-07-20T07:59:44;21.00;99.90
27376;DHT22;14844;51.302;6.354;2023-07-20T08:02:09;20.60;99.90
27376;DHT22;14844;51.302;6.354;2023-07-20T08:04:35;20.90;99.90
27376;DHT22;14844;51.302;6.354;2023-07-20T08:07:01;21.10;99.90
27376;DHT22;14844;51.302;6.354;2023-07-20T08:09:27;20.90;99.90
27376;DHT22;14844;51.302;6.354;2023-07-20T08:11:53;20.60;99.90
27376;DHT22;14844;51.302;6.354;2023-07-20T08:14:21;20.30;99.90
27376;DHT22;14844;51.302;6.354;2023-07-20T08:16:46;20.20;99.90
27376;DHT22;14844;51.302;6.354;2023-07-20T08:19:12;20.20;99.90
27376;DHT22;14844;51.302;6.354;2023-07-20T08:21:38;20.30;99.90
27376;DHT22;14844;51.302;6.354;2023-07-20T08:24:03;20.40;99.90
27376;DHT22;14844;51.302;6.354;2023-07-20T08:26:29;20.90;99.90
27376;DHT22;14844;51.302;6.354;2023-07-20T08:28:54;21.50;98.90
27376;DHT22;14844;51.302;6.354;2023-07-20T08:31:20;21.60;97.70
27376;DHT22;14844;51.302;6.354;2023-07-20T08:33:45;21.60;97.80
27376;DHT22;14844;51.302;6.354;2023-07-20T08:36:11;21.90;97.10
27376;DHT22;14844;51.302;6.354;2023-07-20T08:38:36;22.00;96.10
27376;DHT22;14844;51.302;6.354;2023-07-20T08:41:02;22.20;96.00
27376;DHT22;14844;51.302;6.354;2023-07-20T08:43:28;22.60;96.10
27376;DHT22;14844;51.302;6.354;2023-07-20T08:45:54;22.40;94.50
27376;DHT22;14844;51.302;6.354;2023-07-20T08:48:20;22.40;94.70
27376;DHT22;14844;51.302;6.354;2023-07-20T08:50:46;22.10;95.70
27376;DHT22;14844;51.302;6.354;2023-07-20T08:53:12;21.70;97.10
27376;DHT22;14844;51.302;6.354;2023-07-20T08:55:38;21.30;97.80
27376;DHT22;14844;51.302;6.354;2023-07-20T08:58:04;20.70;98.40
27376;DHT22;14844;51.302;6.354;2023-07-20T09:00:32;20.30;99.10
27376;DHT22;14844;51.302;6.354;2023-07-20T09:02:57;20.10;98.60
27376;DHT22;14844;51.302;6.354;2023-07-20T09:05:25;20.50;98.10
27376;DHT22;14844;51.302;6.354;2023-07-20T09:07:53;20.80;98.90
27376;DHT22;14844;51.302;6.354;2023-07-20T09:10:22;21.10;95.30
27376;DHT22;14844;51.302;6.354;2023-07-20T09:12:48;21.30;96.00
27376;DHT22;14844;51.302;6.354;2023-07-20T09:15:14;21.60;95.70
27376;DHT22;14844;51.302;6.354;2023-07-20T09:17:39;21.90;96.10
27376;DHT22;14844;51.302;6.354;2023-07-20T09:20:10;22.10;95.20
27376;DHT22;14844;51.302;6.354;2023-07-20T09:22:36;22.20;95.70
27376;DHT22;14844;51.302;6.354;2023-07-20T09:27:37;22.10;95.10
27376;DHT22;14844;51.302;6.354;2023-07-20T09:30:03;21.70;95.30
27376;DHT22;14844;51.302;6.354;2023-07-20T09:32:29;21.50;93.90
27376;DHT22;14844;51.302;6.354;2023-07-20T09:34:54;21.60;94.20
27376;DHT22;14844;51.302;6.354;2023-07-20T09:37:23;21.90;92.70
27376;DHT22;14844;51.302;6.354;2023-07-20T09:39:51;22.00;92.60
27376;DHT22;14844;51.302;6.354;2023-07-20T09:42:17;22.30;91.80
27376;DHT22;14844;51.302;6.354;2023-07-20T09:44:43;22.50;91.40
27376;DHT22;14844;51.302;6.354;2023-07-20T09:47:09;22.80;91.50
27376;DHT22;14844;51.302;6.354;2023-07-20T09:49:44;23.10;90.70
27376;DHT22;14844;51.302;6.354;2023-07-20T09:52:09;23.40;89.80
27376;DHT22;14844;51.302;6.354;2023-07-20T09:54:37;23.80;88.30
27376;DHT22;14844;51.302;6.354;2023-07-20T09:57:02;23.90;86.30
27376;DHT22;14844;51.302;6.354;2023-07-20T09:59:28;23.80;86.40
27376;DHT22;14844;51.302;6.354;2023-07-20T10:01:55;23.30;88.50
27376;DHT22;14844;51.302;6.354;2023-07-20T10:04:23;22.80;87.10
27376;DHT22;14844;51.302;6.354;2023-07-20T10:06:48;22.40;89.10
27376;DHT22;14844;51.302;6.354;2023-07-20T10:09:15;22.60;89.40
27376;DHT22;14844;51.302;6.354;2023-07-20T10:11:41;23.40;90.10
27376;DHT22;14844;51.302;6.354;2023-07-20T10:14:07;24.20;86.30
27376;DHT22;14844;51.302;6.354;2023-07-20T10:16:36;24.70;85.90
27376;DHT22;14844;51.302;6.354;2023-07-20T10:19:11;24.80;84.80
27376;DHT22;14844;51.302;6.354;2023-07-20T10:21:42;24.00;84.80
27376;DHT22;14844;51.302;6.354;2023-07-20T10:24:12;23.40;85.40
27376;DHT22;14844;51.302;6.354;2023-07-20T10:26:38;23.20;86.80
27376;DHT22;14844;51.302;6.354;2023-07-20T10:29:04;23.10;86.40
27376;DHT22;14844;51.302;6.354;2023-07-20T10:31:31;23.60;83.80
27376;DHT22;14844;51.302;6.354;2023-07-20T10:33:57;24.30;83.60
27376;DHT22;14844;51.302;6.354;2023-07-20T10:36:26;25.20;80.80
27376;DHT22;14844;51.302;6.354;2023-07-20T10:38:55;26.40;80.80
27376;DHT22;14844;51.302;6.354;2023-07-20T10:41:35;27.20;75.50
27376;DHT22;14844;51.302;6.354;2023-07-20T10:44:07;27.20;72.10
27376;DHT22;14844;51.302;6.354;2023-07-20T10:49:03;26.70;72.30
27376;DHT22;14844;51.302;6.354;2023-07-20T10:51:29;26.30;72.50
27376;DHT22;14844;51.302;6.354;2023-07-20T10:53:56;25.30;73.80
27376;DHT22;14844;51.302;6.354;2023-07-20T10:56:24;24.30;77.10
27376;DHT22;14844;51.302;6.354;2023-07-20T10:58:55;24.20;76.70
27376;DHT22;14844;51.302;6.354;2023-07-20T11:01:20;24.30;77.10
27376;DHT22;14844;51.302;6.354;2023-07-20T11:03:49;24.70;77.00
27376;DHT22;14844;51.302;6.354;2023-07-20T11:09:10;25.20;74.80
27376;DHT22;14844;51.302;6.354;2023-07-20T11:11:41;25.50;74.70
27376;DHT22;14844;51.302;6.354;2023-07-20T11:14:20;25.30;72.90
27376;DHT22;14844;51.302;6.354;2023-07-20T11:16:47;25.10;76.60
27376;DHT22;14844;51.302;6.354;2023-07-20T11:19:17;24.90;75.90
27376;DHT22;14844;51.302;6.354;2023-07-20T11:21:43;24.60;76.60
27376;DHT22;14844;51.302;6.354;2023-07-20T11:24:09;24.10;72.10
27376;DHT22;14844;51.302;6.354;2023-07-20T11:26:52;23.70;74.00
27376;DHT22;14844;51.302;6.354;2023-07-20T11:29:19;24.00;76.60
27376;DHT22;14844;51.302;6.354;2023-07-20T11:31:45;24.20;75.10
27376;DHT22;14844;51.302;6.354;2023-07-20T11:34:12;24.50;74.60
27376;DHT22;14844;51.302;6.354;2023-07-20T11:36:39;24.60;77.10
27376;DHT22;14844;51.302;6.354;2023-07-20T11:39:06;25.00;77.20
27376;DHT22;14844;51.302;6.354;2023-07-20T11:41:32;25.50;74.10
27376;DHT22;14844;51.302;6.354;2023-07-20T11:43:58;25.80;71.20
27376;DHT22;14844;51.302;6.354;2023-07-20T11:46:23;26.00;70.80
27376;DHT22;14844;51.302;6.354;2023-07-20T11:48:49;26.20;70.20
27376;DHT22;14844;51.302;6.354;2023-07-20T11:51:20;25.90;72.30
27376;DHT22;14844;51.302;6.354;2023-07-20T11:53:46;25.10;72.80
27376;DHT22;14844;51.302;6.354;2023-07-20T11:56:12;24.40;71.20
27376;DHT22;14844;51.302;6.354;2023-07-20T11:58:44;24.10;73.60
27376;DHT22;14844;51.302;6.354;2023-07-20T12:01:11;23.80;72.50
27376;DHT22;14844;51.302;6.354;2023-07-20T12:03:36;23.80;74.50
27376;DHT22;14844;51.302;6.354;2023-07-20T12:06:09;23.60;75.40
27376;DHT22;14844;51.302;6.354;2023-07-20T12:08:34;23.70;74.70
27376;DHT22;14844;51.302;6.354;2023-07-20T12:11:00;23.80;75.70
27376;DHT22;14844;51.302;6.354;2023-07-20T12:13:35;23.70;77.40
27376;DHT22;14844;51.302;6.354;2023-07-20T12:16:06;23.70;76.30
27376;DHT22;14844;51.302;6.354;2023-07-20T12:18:35;23.60;76.80
27376;DHT22;14844;51.302;6.354;2023-07-20T12:21:01;23.60;78.00
27376;DHT22;14844;51.302;6.354;2023-07-20T12:23:34;23.60;77.40
27376;DHT22;14844;51.302;6.354;2023-07-20T12:28:31;24.00;74.70
27376;DHT22;14844;51.302;6.354;2023-07-20T12:30:57;24.10;74.40
27376;DHT22;14844;51.302;6.354;2023-07-20T12:33:22;24.10;75.80
27376;DHT22;14844;51.302;6.354;2023-07-20T12:35:49;24.40;74.20
27376;DHT22;14844;51.302;6.354;2023-07-20T12:38:15;24.80;76.10
27376;DHT22;14844;51.302;6.354;2023-07-20T12:40:41;24.80;72.70
27376;DHT22;14844;51.302;6.354;2023-07-20T12:43:06;24.90;73.00
27376;DHT22;14844;51.302;6.354;2023-07-20T12:45:33;25.00;74.10
27376;DHT22;14844;51.302;6.354;2023-07-20T12:47:59;24.80;73.70
27376;DHT22;14844;51.302;6.354;2023-07-20T12:50:24;24.90;72.00
27376;DHT22;14844;51.302;6.354;2023-07-20T12:52:50;25.00;72.30
27376;DHT22;14844;51.302;6.354;2023-07-20T12:55:16;24.90;72.30
27376;DHT22;14844;51.302;6.354;2023-07-20T12:57:41;24.90;72.90
27376;DHT22;14844;51.302;6.354;2023-07-20T13:00:08;24.80;74.20
27376;DHT22;14844;51.302;6.354;2023-07-20T13:02:34;24.80;73.90
27376;DHT22;14844;51.302;6.354;2023-07-20T13:05:00;24.60;74.40
27376;DHT22;14844;51.302;6.354;2023-07-20T13:07:32;24.20;77.10
27376;DHT22;14844;51.302;6.354;2023-07-20T13:09:58;24.00;77.30
27376;DHT22;14844;51.302;6.354;2023-07-20T13:12:29;23.90;76.60
27376;DHT22;14844;51.302;6.354;2023-07-20T13:14:55;23.90;78.20
27376;DHT22;14844;51.302;6.354;2023-07-20T13:17:21;23.90;76.60
27376;DHT22;14844;51.302;6.354;2023-07-20T13:19:46;23.70;76.60
27376;DHT22;14844;51.302;6.354;2023-07-20T13:22:12;23.50;78.00
27376;DHT22;14844;51.302;6.354;2023-07-20T13:24:40;23.60;79.00
27376;DHT22;14844;51.302;6.354;2023-07-20T13:27:05;23.90;78.80
27376;DHT22;14844;51.302;6.354;2023-07-20T13:29:31;23.90;78.70
27376;DHT22;14844;51.302;6.354;2023-07-20T13:31:57;24.10;76.90
27376;DHT22;14844;51.302;6.354;2023-07-20T13:34:23;24.40;77.70
27376;DHT22;14844;51.302;6.354;2023-07-20T13:36:49;24.70;76.80
27376;DHT22;14844;51.302;6.354;2023-07-20T13:39:14;24.80;75.00
27376;DHT22;14844;51.302;6.354;2023-07-20T13:41:40;24.80;74.50
27376;DHT22;14844;51.302;6.354;2023-07-20T13:44:06;24.50;73.90
27376;DHT22;14844;51.302;6.354;2023-07-20T13:46:31;24.20;73.80
27376;DHT22;14844;51.302;6.354;2023-07-20T13:48:57;24.10;74.30
27376;DHT22;14844;51.302;6.354;2023-07-20T13:51:22;23.90;73.10
27376;DHT22;14844;51.302;6.354;2023-07-20T13:53:48;24.30;73.60
27376;DHT22;14844;51.302;6.354;2023-07-20T13:56:13;24.80;74.80
27376;DHT22;14844;51.302;6.354;2023-07-20T13:58:39;24.90;71.70
27376;DHT22;14844;51.302;6.354;2023-07-20T14:01:05;25.00;72.60
27376;DHT22;14844;51.302;6.354;2023-07-20T14:03:30;25.40;72.80
27376;DHT22;14844;51.302;6.354;2023-07-20T14:05:56;25.70;70.40
27376;DHT22;14844;51.302;6.354;2023-07-20T14:08:22;26.00;72.60
27376;DHT22;14844;51.302;6.354;2023-07-20T14:10:48;25.80;68.30
27376;DHT22;14844;51.302;6.354;2023-07-20T14:13:13;25.50;69.90
27376;DHT22;14844;51.302;6.354;2023-07-20T14:15:42;24.80;71.70
27376;DHT22;14844;51.302;6.354;2023-07-20T14:18:10;24.20;74.30
27376;DHT22;14844;51.302;6.354;2023-07-20T14:20:36;23.90;73.30
27376;DHT22;14844;51.302;6.354;2023-07-20T14:23:01;23.70;73.30
27376;DHT22;14844;51.302;6.354;2023-07-20T14:25:27;23.50;73.80
27376;DHT22;14844;51.302;6.354;2023-07-20T14:27:52;23.30;73.40
27376;DHT22;14844;51.302;6.354;2023-07-20T14:30:18;23.40;74.50
27376;DHT22;14844;51.302;6.354;2023-07-20T14:32:44;23.40;73.60
27376;DHT22;14844;51.302;6.354;2023-07-20T14:35:10;23.50;74.30
27376;DHT22;14844;51.302;6.354;2023-07-20T14:37:35;23.50;74.00
27376;DHT22;14844;51.302;6.354;2023-07-20T14:40:01;23.70;73.60
27376;DHT22;14844;51.302;6.354;2023-07-20T14:42:30;24.30;72.40
27376;DHT22;14844;51.302;6.354;2023-07-20T14:44:57;25.60;70.40
27376;DHT22;14844;51.302;6.354;2023-07-20T14:47:23;26.90;66.00
27376;DHT22;14844;51.302;6.354;2023-07-20T14:49:48;27.30;66.30
27376;DHT22;14844;51.302;6.354;2023-07-20T14:52:14;27.30;66.50
27376;DHT22;14844;51.302;6.354;2023-07-20T14:54:40;27.60;64.60
27376;DHT22;14844;51.302;6.354;2023-07-20T14:57:05;28.00;65.00
27376;DHT22;14844;51.302;6.354;2023-07-20T14:59:38;28.10;63.30
27376;DHT22;14844;51.302;6.354;2023-07-20T15:02:04;28.50;62.20
27376;DHT22;14844;51.302;6.354;2023-07-20T15:04:29;28.20;62.60
27376;DHT22;14844;51.302;6.354;2023-07-20T15:06:55;28.50;60.40
27376;DHT22;14844;51.302;6.354;2023-07-20T15:09:21;29.50;60.60
27376;DHT22;14844;51.302;6.354;2023-07-20T15:11:47;29.80;57.60
27376;DHT22;14844;51.302;6.354;2023-07-20T15:14:13;29.90;58.00
27376;DHT22;14844;51.302;6.354;2023-07-20T15:16:38;30.20;56.40
27376;DHT22;14844;51.302;6.354;2023-07-20T15:19:04;29.80;56.80
27376;DHT22;14844;51.302;6.354;2023-07-20T15:21:29;30.50;57.00
27376;DHT22;14844;51.302;6.354;2023-07-20T15:23:57;31.40;54.90
27376;DHT22;14844;51.302;6.354;2023-07-20T15:26:22;31.50;53.40
27376;DHT22;14844;51.302;6.354;2023-07-20T15:28:48;30.30;55.00
27376;DHT22;14844;51.302;6.354;2023-07-20T15:31:13;30.20;56.30
27376;DHT22;14844;51.302;6.354;2023-07-20T15:33:39;29.10;56.10
27376;DHT22;14844;51.302;6.354;2023-07-20T15:36:04;28.10;57.70
27376;DHT22;14844;51.302;6.354;2023-07-20T15:38:30;27.60;58.70
27376;DHT22;14844;51.302;6.354;2023-07-20T15:40:56;27.40;59.20